sensor_id;sensor_type;location;lat;lon;timestamp;pressure;altitude;pressure_sealevel;temperature;humidity
25420;BME280;13354;48.174;11.566;2022-12-18T00:00:54;96756.19;;;-3.81;85.62
25420;BME280;13354;48.174;11.566;2022-12-18T00:03:20;96763.81;;;-3.96;86.17
25420;BME280;13354;48.174;11.566;2022-12-18T00:05:52;96763.56;;;-3.91;86.00
25420;BME280;13354;48.174;11.566;2022-12-18T00:08:18;96765.28;;;-3.90;85.74
25420;BME280;13354;48.174;11.566;2022-12-18T00:10:44;96754.59;;;-3.84;85.44
25420;BME280;13354;48.174;11.566;2022-12-18T00:13:10;96756.06;;;-3.96;85.84
25420;BME280;13354;48.174;11.566;2022-12-18T00:15:37;96756.19;;;-4.16;86.16
25420;BME280;13354;48.174;11.566;2022-12-18T00:18:03;96754.13;;;-4.09;85.55
25420;BME280;13354;48.174;11.566;2022-12-18T00:20:28;96760.00;;;-4.06;85.88
25420;BME280;13354;48.174;11.566;2022-12-18T00:22:54;96766.19;;;-4.08;85.86
25420;BME280;13354;48.174;11.566;2022-12-18T00:25:20;96762.91;;;-4.12;86.72
25420;BME280;13354;48.174;11.566;2022-12-18T00:27:45;96755.44;;;-4.18;86.48
25420;BME280;13354;48.174;11.566;2022-12-18T00:30:11;96756.66;;;-4.25;86.73
25420;BME280;13354;48.174;11.566;2022-12-18T00:32:37;96763.72;;;-4.29;87.19
25420;BME280;13354;48.174;11.566;2022-12-18T00:35:02;96775.66;;;-4.26;86.60
25420;BME280;13354;48.174;11.566;2022-12-18T00:37:28;96788.66;;;-4.28;87.26
25420;BME280;13354;48.174;11.566;2022-12-18T00:39:53;96792.72;;;-4.22;87.84
25420;BME280;13354;48.174;11.566;2022-12-18T00:42:18;96789.81;;;-4.16;87.58
25420;BME280;13354;48.174;11.566;2022-12-18T00:45:03;96788.22;;;-4.19;87.77
25420;BME280;13354;48.174;11.566;2022-12-18T00:47:28;96786.25;;;-4.14;87.37
25420;BME280;13354;48.174;11.566;2022-12-18T00:49:53;96792.94;;;-4.09;86.61
25420;BME280;13354;48.174;11.566;2022-12-18T00:52:18;96790.81;;;-4.19;87.63
25420;BME280;13354;48.174;11.566;2022-12-18T00:54:44;96796.03;;;-4.20;87.63
25420;BME280;13354;48.174;11.566;2022-12-18T00:57:09;96796.03;;;-4.20;87.81
25420;BME280;13354;48.174;11.566;2022-12-18T00:59:34;96788.97;;;-4.17;87.63
25420;BME280;13354;48.174;11.566;2022-12-18T01:01:59;96791.56;;;-4.17;87.72
25420;BME280;13354;48.174;11.566;2022-12-18T01:04:25;96786.94;;;-4.10;87.48
25420;BME280;13354;48.174;11.566;2022-12-18T01:06:50;96799.16;;;-4.14;86.69
25420;BME280;13354;48.174;11.566;2022-12-18T01:09:15;96799.13;;;-4.31;86.88
25420;BME280;13354;48.174;11.566;2022-12-18T01:11:41;96804.50;;;-4.17;86.83
25420;BME280;13354;48.174;11.566;2022-12-18T01:14:06;96805.00;;;-4.27;86.93
25420;BME280;13354;48.174;11.566;2022-12-18T01:16:31;96807.53;;;-4.26;87.12
25420;BME280;13354;48.174;11.566;2022-12-18T01:18:57;96814.50;;;-4.28;86.93
25420;BME280;13354;48.174;11.566;2022-12-18T01:21:23;96817.00;;;-4.07;86.61
25420;BME280;13354;48.174;11.566;2022-12-18T01:23:53;96834.63;;;-4.34;86.63
25420;BME280;13354;48.174;11.566;2022-12-18T01:26:18;96830.34;;;-4.34;87.54
25420;BME280;13354;48.174;11.566;2022-12-18T01:28:44;96832.28;;;-4.39;87.69
25420;BME280;13354;48.174;11.566;2022-12-18T01:31:21;96844.97;;;-4.34;88.14
25420;BME280;13354;48.174;11.566;2022-12-18T01:33:48;96847.06;;;-4.24;88.53
25420;BME280;13354;48.174;11.566;2022-12-18T01:36:25;96844.94;;;-4.33;88.31
25420;BME280;13354;48.174;11.566;2022-12-18T01:38:51;96850.56;;;-4.25;88.35
25420;BME280;13354;48.174;11.566;2022-12-18T01:41:19;96849.72;;;-4.25;88.36
25420;BME280;13354;48.174;11.566;2022-12-18T01:43:56;96852.94;;;-4.20;88.69
25420;BME280;13354;48.174;11.566;2022-12-18T01:46:26;96850.47;;;-4.04;88.66
25420;BME280;13354;48.174;11.566;2022-12-18T01:49:00;96844.09;;;-4.16;87.49
25420;BME280;13354;48.174;11.566;2022-12-18T01:51:27;96837.13;;;-4.14;88.08
25420;BME280;13354;48.174;11.566;2022-12-18T01:53:54;96846.19;;;-4.23;87.97
25420;BME280;13354;48.174;11.566;2022-12-18T01:56:21;96849.59;;;-4.22;88.35
25420;BME280;13354;48.174;11.566;2022-12-18T01:58:56;96852.22;;;-4.24;88.31
25420;BME280;13354;48.174;11.566;2022-12-18T02:01:24;96853.00;;;-4.22;88.69
25420;BME280;13354;48.174;11.566;2022-12-18T02:03:50;96853.34;;;-4.10;88.67
25420;BME280;13354;48.174;11.566;2022-12-18T02:06:23;96843.81;;;-4.10;88.21
25420;BME280;13354;48.174;11.566;2022-12-18T02:09:02;96838.34;;;-4.21;88.29
25420;BME280;13354;48.174;11.566;2022-12-18T02:14:04;96837.09;;;-4.31;88.47
25420;BME280;13354;48.174;11.566;2022-12-18T02:16:51;96831.50;;;-4.22;88.73
25420;BME280;13354;48.174;11.566;2022-12-18T02:21:58;96825.03;;;-4.14;88.90
25420;BME280;13354;48.174;11.566;2022-12-18T02:24:35;96834.69;;;-4.17;89.36
25420;BME280;13354;48.174;11.566;2022-12-18T02:27:05;96835.88;;;-4.24;89.07
25420;BME280;13354;48.174;11.566;2022-12-18T02:29:35;96832.94;;;-4.17;89.10
25420;BME280;13354;48.174;11.566;2022-12-18T02:32:06;96830.72;;;-4.24;89.20
25420;BME280;13354;48.174;11.566;2022-12-18T02:34:36;96825.59;;;-4.07;88.57
25420;BME280;13354;48.174;11.566;2022-12-18T02:37:05;96825.59;;;-4.07;88.71
25420;BME280;13354;48.174;11.566;2022-12-18T02:39:33;96819.84;;;-4.14;87.66
25420;BME280;13354;48.174;11.566;2022-12-18T02:42:00;96819.44;;;-4.04;87.83
25420;BME280;13354;48.174;11.566;2022-12-18T02:44:27;96819.88;;;-3.96;87.74
25420;BME280;13354;48.174;11.566;2022-12-18T02:46:53;96821.63;;;-4.14;87.61
25420;BME280;13354;48.174;11.566;2022-12-18T02:49:40;96823.91;;;-4.08;87.50
25420;BME280;13354;48.174;11.566;2022-12-18T03:01:02;96833.09;;;-4.02;87.20
25420;BME280;13354;48.174;11.566;2022-12-18T03:03:38;96836.69;;;-4.05;87.78
25420;BME280;13354;48.174;11.566;2022-12-18T03:06:12;96834.47;;;-4.13;88.33
25420;BME280;13354;48.174;11.566;2022-12-18T03:08:43;96821.75;;;-4.17;88.60
25420;BME280;13354;48.174;11.566;2022-12-18T03:11:12;96826.22;;;-4.21;88.48
25420;BME280;13354;48.174;11.566;2022-12-18T03:13:48;96825.88;;;-4.13;88.57
25420;BME280;13354;48.174;11.566;2022-12-18T03:16:19;96825.34;;;-4.20;88.75
25420;BME280;13354;48.174;11.566;2022-12-18T03:18:58;96821.84;;;-4.19;88.45
25420;BME280;13354;48.174;11.566;2022-12-18T03:21:29;96820.25;;;-4.04;88.22
25420;BME280;13354;48.174;11.566;2022-12-18T03:23:57;96824.22;;;-3.97;88.11
25420;BME280;13354;48.174;11.566;2022-12-18T03:26:25;96832.03;;;-3.98;87.68
25420;BME280;13354;48.174;11.566;2022-12-18T03:28:56;96824.22;;;-3.97;87.91
25420;BME280;13354;48.174;11.566;2022-12-18T03:31:26;96825.50;;;-4.05;87.43
25420;BME280;13354;48.174;11.566;2022-12-18T03:33:56;96820.09;;;-3.83;87.14
25420;BME280;13354;48.174;11.566;2022-12-18T03:36:23;96825.34;;;-4.02;87.10
25420;BME280;13354;48.174;11.566;2022-12-18T03:38:48;96831.81;;;-4.11;87.16
25420;BME280;13354;48.174;11.566;2022-12-18T03:41:33;96836.31;;;-3.97;86.74
25420;BME280;13354;48.174;11.566;2022-12-18T03:44:26;96833.25;;;-4.05;86.77
25420;BME280;13354;48.174;11.566;2022-12-18T03:47:16;96837.44;;;-4.03;86.84
25420;BME280;13354;48.174;11.566;2022-12-18T03:49:57;96835.19;;;-3.92;86.71
25420;BME280;13354;48.174;11.566;2022-12-18T03:52:42;96828.84;;;-4.03;86.41
25420;BME280;13354;48.174;11.566;2022-12-18T03:55:09;96829.31;;;-3.95;87.26
25420;BME280;13354;48.174;11.566;2022-12-18T03:57:36;96823.59;;;-4.02;87.12
25420;BME280;13354;48.174;11.566;2022-12-18T04:00:09;96834.81;;;-4.20;87.71
25420;BME280;13354;48.174;11.566;2022-12-18T04:02:38;96833.09;;;-4.20;87.68
25420;BME280;13354;48.174;11.566;2022-12-18T04:05:06;96834.44;;;-4.30;88.07
25420;BME280;13354;48.174;11.566;2022-12-18T04:07:33;96836.34;;;-4.16;88.37
25420;BME280;13354;48.174;11.566;2022-12-18T04:10:01;96841.25;;;-4.10;88.33
25420;BME280;13354;48.174;11.566;2022-12-18T04:12:28;96840.78;;;-4.18;88.49
25420;BME280;13354;48.174;11.566;2022-12-18T04:14:54;96833.56;;;-4.11;88.10
25420;BME280;13354;48.174;11.566;2022-12-18T04:17:20;96827.09;;;-4.03;87.89
25420;BME280;13354;48.174;11.566;2022-12-18T04:19:46;96828.59;;;-4.16;88.44
25420;BME280;13354;48.174;11.566;2022-12-18T04:22:11;96835.31;;;-4.12;88.88
25420;BME280;13354;48.174;11.566;2022-12-18T04:24:36;96833.16;;;-4.21;88.67
25420;BME280;13354;48.174;11.566;2022-12-18T04:27:02;96834.03;;;-4.03;88.95
25420;BME280;13354;48.174;11.566;2022-12-18T04:29:27;96837.75;;;-4.09;88.69
25420;BME280;13354;48.174;11.566;2022-12-18T04:31:53;96848.16;;;-4.10;89.16
25420;BME280;13354;48.174;11.566;2022-12-18T04:34:19;96845.63;;;-3.93;88.08
25420;BME280;13354;48.174;11.566;2022-12-18T04:36:44;96853.34;;;-4.10;88.11
25420;BME280;13354;48.174;11.566;2022-12-18T04:39:10;96849.13;;;-4.13;88.07
25420;BME280;13354;48.174;11.566;2022-12-18T04:41:35;96838.13;;;-3.99;88.51
25420;BME280;13354;48.174;11.566;2022-12-18T04:44:01;96831.72;;;-4.09;88.11
25420;BME280;13354;48.174;11.566;2022-12-18T04:46:26;96844.47;;;-4.05;88.54
25420;BME280;13354;48.174;11.566;2022-12-18T04:48:51;96856.34;;;-4.01;88.05
25420;BME280;13354;48.174;11.566;2022-12-18T04:51:17;96854.63;;;-4.02;88.25
25420;BME280;13354;48.174;11.566;2022-12-18T04:53:42;96866.59;;;-3.99;88.19
25420;BME280;13354;48.174;11.566;2022-12-18T04:56:10;96864.94;;;-4.00;87.89
25420;BME280;13354;48.174;11.566;2022-12-18T04:58:38;96869.22;;;-3.82;87.46
25420;BME280;13354;48.174;11.566;2022-12-18T05:01:05;96863.56;;;-3.90;87.24
25420;BME280;13354;48.174;11.566;2022-12-18T05:03:31;96866.00;;;-4.04;87.24
25420;BME280;13354;48.174;11.566;2022-12-18T05:05:56;96862.41;;;-4.02;87.61
25420;BME280;13354;48.174;11.566;2022-12-18T05:08:21;96859.44;;;-3.94;87.97
25420;BME280;13354;48.174;11.566;2022-12-18T05:10:47;96870.31;;;-4.05;87.76
25420;BME280;13354;48.174;11.566;2022-12-18T05:13:12;96872.38;;;-3.94;87.73
25420;BME280;13354;48.174;11.566;2022-12-18T05:15:37;96884.94;;;-4.04;87.61
25420;BME280;13354;48.174;11.566;2022-12-18T05:18:03;96888.44;;;-3.88;87.53
25420;BME280;13354;48.174;11.566;2022-12-18T05:20:29;96870.84;;;-3.98;87.63
25420;BME280;13354;48.174;11.566;2022-12-18T05:22:55;96861.19;;;-3.95;86.78
25420;BME280;13354;48.174;11.566;2022-12-18T05:25:21;96866.34;;;-4.12;87.46
25420;BME280;13354;48.174;11.566;2022-12-18T05:27:47;96869.47;;;-4.05;87.49
25420;BME280;13354;48.174;11.566;2022-12-18T05:30:13;96871.44;;;-4.10;88.37
25420;BME280;13354;48.174;11.566;2022-12-18T05:32:39;96883.94;;;-4.01;87.71
25420;BME280;13354;48.174;11.566;2022-12-18T05:35:07;96890.16;;;-4.05;86.91
25420;BME280;13354;48.174;11.566;2022-12-18T05:37:32;96884.94;;;-4.04;87.35
25420;BME280;13354;48.174;11.566;2022-12-18T05:39:58;96890.47;;;-4.11;87.63
25420;BME280;13354;48.174;11.566;2022-12-18T05:42:24;96891.72;;;-4.01;88.24
25420;BME280;13354;48.174;11.566;2022-12-18T05:44:49;96890.66;;;-3.97;88.13
25420;BME280;13354;48.174;11.566;2022-12-18T05:47:14;96881.22;;;-3.81;87.33
25420;BME280;13354;48.174;11.566;2022-12-18T05:49:39;96883.94;;;-4.01;87.47
25420;BME280;13354;48.174;11.566;2022-12-18T05:52:05;96883.41;;;-4.08;87.44
25420;BME280;13354;48.174;11.566;2022-12-18T05:54:30;96895.41;;;-4.07;87.83
25420;BME280;13354;48.174;11.566;2022-12-18T05:56:56;96898.94;;;-3.91;87.69
25420;BME280;13354;48.174;11.566;2022-12-18T05:59:21;96896.25;;;-4.06;87.77
25420;BME280;13354;48.174;11.566;2022-12-18T06:01:47;96901.28;;;-4.03;87.26
25420;BME280;13354;48.174;11.566;2022-12-18T06:04:12;96897.31;;;-4.10;88.21
25420;BME280;13354;48.174;11.566;2022-12-18T06:06:37;96902.13;;;-4.03;87.71
25420;BME280;13354;48.174;11.566;2022-12-18T06:09:03;96897.78;;;-4.02;87.52
25420;BME280;13354;48.174;11.566;2022-12-18T06:11:34;96897.78;;;-4.02;86.96
25420;BME280;13354;48.174;11.566;2022-12-18T06:13:59;96901.97;;;-4.00;87.05
25420;BME280;13354;48.174;11.566;2022-12-18T06:16:26;96901.06;;;-3.99;86.77
25420;BME280;13354;48.174;11.566;2022-12-18T06:18:51;96899.09;;;-3.94;86.31
25420;BME280;13354;48.174;11.566;2022-12-18T06:21:16;96894.41;;;-3.85;86.77
25420;BME280;13354;48.174;11.566;2022-12-18T06:23:42;96894.06;;;-3.97;86.32
25420;BME280;13354;48.174;11.566;2022-12-18T06:26:09;96898.09;;;-4.08;86.19
25420;BME280;13354;48.174;11.566;2022-12-18T06:28:35;96902.41;;;-4.09;86.45
25420;BME280;13354;48.174;11.566;2022-12-18T06:31:03;96912.19;;;-3.97;86.68
25420;BME280;13354;48.174;11.566;2022-12-18T06:33:28;96910.50;;;-3.98;86.74
25420;BME280;13354;48.174;11.566;2022-12-18T06:35:54;96919.09;;;-3.97;85.62
25420;BME280;13354;48.174;11.566;2022-12-18T06:38:24;96920.31;;;-4.04;85.45
25420;BME280;13354;48.174;11.566;2022-12-18T06:40:49;96920.72;;;-4.14;86.05
25420;BME280;13354;48.174;11.566;2022-12-18T06:43:14;96925.28;;;-4.19;86.10
25420;BME280;13354;48.174;11.566;2022-12-18T06:45:40;96919.28;;;-4.19;86.34
25420;BME280;13354;48.174;11.566;2022-12-18T06:48:05;96924.97;;;-4.13;86.23
25420;BME280;13354;48.174;11.566;2022-12-18T06:50:30;96925.66;;;-4.09;86.25
25420;BME280;13354;48.174;11.566;2022-12-18T06:52:56;96933.72;;;-3.96;85.91
25420;BME280;13354;48.174;11.566;2022-12-18T06:55:21;96934.00;;;-4.02;86.24
25420;BME280;13354;48.174;11.566;2022-12-18T06:57:47;96933.25;;;-4.04;86.07
25420;BME280;13354;48.174;11.566;2022-12-18T07:00:12;96942.06;;;-4.08;85.92
25420;BME280;13354;48.174;11.566;2022-12-18T07:02:38;96943.97;;;-3.95;85.81
25420;BME280;13354;48.174;11.566;2022-12-18T07:05:04;96954.00;;;-4.06;85.94
25420;BME280;13354;48.174;11.566;2022-12-18T07:07:29;96959.09;;;-4.04;85.53
25420;BME280;13354;48.174;11.566;2022-12-18T07:09:55;96955.13;;;-4.11;85.64
25420;BME280;13354;48.174;11.566;2022-12-18T07:12:20;96960.69;;;-4.21;85.57
25420;BME280;13354;48.174;11.566;2022-12-18T07:14:45;96963.06;;;-4.35;85.34
25420;BME280;13354;48.174;11.566;2022-12-18T07:17:10;96959.25;;;-4.45;85.54
25420;BME280;13354;48.174;11.566;2022-12-18T07:19:36;96971.00;;;-4.38;86.16
25420;BME280;13354;48.174;11.566;2022-12-18T07:22:01;96978.22;;;-4.46;86.51
25420;BME280;13354;48.174;11.566;2022-12-18T07:24:26;96972.78;;;-4.40;86.75
25420;BME280;13354;48.174;11.566;2022-12-18T07:26:52;96974.81;;;-4.28;87.13
25420;BME280;13354;48.174;11.566;2022-12-18T07:29:17;96977.41;;;-4.28;87.21
25420;BME280;13354;48.174;11.566;2022-12-18T07:31:42;96980.56;;;-4.21;86.85
25420;BME280;13354;48.174;11.566;2022-12-18T07:34:14;96976.00;;;-4.16;86.97
25420;BME280;13354;48.174;11.566;2022-12-18T07:36:40;96973.94;;;-4.27;86.43
25420;BME280;13354;48.174;11.566;2022-12-18T07:39:05;96969.28;;;-4.39;86.30
25420;BME280;13354;48.174;11.566;2022-12-18T07:41:31;96964.00;;;-4.36;86.24
25420;BME280;13354;48.174;11.566;2022-12-18T07:43:56;96964.47;;;-4.28;86.22
25420;BME280;13354;48.174;11.566;2022-12-18T07:46:22;96965.97;;;-4.22;85.59
25420;BME280;13354;48.174;11.566;2022-12-18T07:48:47;96961.41;;;-4.17;85.43
25420;BME280;13354;48.174;11.566;2022-12-18T07:51:13;96969.50;;;-4.25;85.63
25420;BME280;13354;48.174;11.566;2022-12-18T07:53:39;96970.34;;;-4.24;85.06
25420;BME280;13354;48.174;11.566;2022-12-18T07:56:10;96964.00;;;-4.17;85.26
25420;BME280;13354;48.174;11.566;2022-12-18T07:58:36;96975.38;;;-4.21;85.48
25420;BME280;13354;48.174;11.566;2022-12-18T08:01:09;96969.94;;;-4.34;85.85
25420;BME280;13354;48.174;11.566;2022-12-18T08:03:35;96971.88;;;-4.20;86.56
25420;BME280;13354;48.174;11.566;2022-12-18T08:06:02;96975.34;;;-4.20;86.72
25420;BME280;13354;48.174;11.566;2022-12-18T08:08:28;96986.22;;;-4.32;86.76
25420;BME280;13354;48.174;11.566;2022-12-18T08:10:53;96987.19;;;-4.34;86.79
25420;BME280;13354;48.174;11.566;2022-12-18T08:13:19;96985.16;;;-4.28;87.11
25420;BME280;13354;48.174;11.566;2022-12-18T08:15:44;96993.22;;;-4.15;86.93
25420;BME280;13354;48.174;11.566;2022-12-18T08:18:09;96997.75;;;-4.20;86.65
25420;BME280;13354;48.174;11.566;2022-12-18T08:20:35;96998.88;;;-4.26;86.65
25420;BME280;13354;48.174;11.566;2022-12-18T08:23:00;96994.47;;;-4.24;86.49
25420;BME280;13354;48.174;11.566;2022-12-18T08:25:25;96991.47;;;-4.15;86.63
25420;BME280;13354;48.174;11.566;2022-12-18T08:27:50;96990.06;;;-4.22;86.39
25420;BME280;13354;48.174;11.566;2022-12-18T08:30:16;96996.63;;;-4.15;86.07
25420;BME280;13354;48.174;11.566;2022-12-18T08:32:41;96995.50;;;-4.09;87.76
25420;BME280;13354;48.174;11.566;2022-12-18T08:35:07;97000.28;;;-4.19;86.99
25420;BME280;13354;48.174;11.566;2022-12-18T08:37:33;96992.56;;;-4.20;87.00
25420;BME280;13354;48.174;11.566;2022-12-18T08:39:58;96989.44;;;-4.08;86.82
25420;BME280;13354;48.174;11.566;2022-12-18T08:42:24;96994.03;;;-3.96;87.35
25420;BME280;13354;48.174;11.566;2022-12-18T08:45:08;96992.84;;;-3.89;86.55
25420;BME280;13354;48.174;11.566;2022-12-18T08:47:34;96989.72;;;-3.95;86.24
25420;BME280;13354;48.174;11.566;2022-12-18T08:49:59;97004.88;;;-4.06;86.27
25420;BME280;13354;48.174;11.566;2022-12-18T08:52:24;97008.66;;;-4.14;86.02
25420;BME280;13354;48.174;11.566;2022-12-18T08:54:50;97010.06;;;-4.06;86.42
25420;BME280;13354;48.174;11.566;2022-12-18T08:57:15;97002.88;;;-4.00;86.55
25420;BME280;13354;48.174;11.566;2022-12-18T08:59:41;97001.31;;;-3.85;85.89
25420;BME280;13354;48.174;11.566;2022-12-18T09:02:09;97003.63;;;-3.79;85.29
25420;BME280;13354;48.174;11.566;2022-12-18T09:04:34;97009.00;;;-3.83;84.85
25420;BME280;13354;48.174;11.566;2022-12-18T09:07:00;97006.72;;;-3.90;84.57
25420;BME280;13354;48.174;11.566;2022-12-18T09:09:25;97005.66;;;-3.85;85.37
25420;BME280;13354;48.174;11.566;2022-12-18T09:11:50;97014.16;;;-3.83;85.58
25420;BME280;13354;48.174;11.566;2022-12-18T09:14:16;97010.84;;;-3.49;84.95
25420;BME280;13354;48.174;11.566;2022-12-18T09:16:41;97015.63;;;-3.59;83.77
25420;BME280;13354;48.174;11.566;2022-12-18T09:19:06;97011.91;;;-3.72;84.08
25420;BME280;13354;48.174;11.566;2022-12-18T09:21:34;97008.09;;;-3.82;84.40
25420;BME280;13354;48.174;11.566;2022-12-18T09:24:00;97010.47;;;-3.78;83.96
25420;BME280;13354;48.174;11.566;2022-12-18T09:26:26;97006.63;;;-3.88;84.39
25420;BME280;13354;48.174;11.566;2022-12-18T09:28:51;97002.84;;;-3.81;84.56
25420;BME280;13354;48.174;11.566;2022-12-18T09:31:20;96999.44;;;-3.81;83.99
25420;BME280;13354;48.174;11.566;2022-12-18T09:33:45;97000.19;;;-3.60;86.29
25420;BME280;13354;48.174;11.566;2022-12-18T09:36:14;97002.22;;;-3.31;88.07
25420;BME280;13354;48.174;11.566;2022-12-18T09:38:40;97002.06;;;-2.93;91.66
25420;BME280;13354;48.174;11.566;2022-12-18T09:41:18;97003.19;;;-2.99;91.45
25420;BME280;13354;48.174;11.566;2022-12-18T09:43:50;96994.13;;;-2.90;89.15
25420;BME280;13354;48.174;11.566;2022-12-18T09:46:24;96995.22;;;-2.94;88.11
25420;BME280;13354;48.174;11.566;2022-12-18T09:48:53;96994.28;;;-2.93;84.91
25420;BME280;13354;48.174;11.566;2022-12-18T09:51:29;97000.16;;;-3.07;83.15
25420;BME280;13354;48.174;11.566;2022-12-18T09:54:01;96997.41;;;-3.21;82.77
25420;BME280;13354;48.174;11.566;2022-12-18T09:56:29;96998.38;;;-3.41;82.27
25420;BME280;13354;48.174;11.566;2022-12-18T09:59:01;96992.97;;;-3.36;82.33
25420;BME280;13354;48.174;11.566;2022-12-18T10:01:28;96997.22;;;-3.53;82.66
25420;BME280;13354;48.174;11.566;2022-12-18T10:03:54;96991.03;;;-3.50;82.33
25420;BME280;13354;48.174;11.566;2022-12-18T10:06:38;96997.72;;;-3.63;82.60
25420;BME280;13354;48.174;11.566;2022-12-18T10:17:20;96971.00;;;-3.83;82.91
25420;BME280;13354;48.174;11.566;2022-12-18T10:19:56;96968.16;;;-3.77;83.13
25420;BME280;13354;48.174;11.566;2022-12-18T10:27:41;96970.75;;;-3.77;83.46
25420;BME280;13354;48.174;11.566;2022-12-18T10:30:18;96968.94;;;-3.75;83.42
25420;BME280;13354;48.174;11.566;2022-12-18T10:32:44;96959.69;;;-3.80;83.32
25420;BME280;13354;48.174;11.566;2022-12-18T10:35:21;96956.81;;;-3.74;82.85
25420;BME280;13354;48.174;11.566;2022-12-18T10:38:06;96948.22;;;-3.75;83.10
25420;BME280;13354;48.174;11.566;2022-12-18T10:40:32;96951.00;;;-3.79;82.71
25420;BME280;13354;48.174;11.566;2022-12-18T10:43:36;96949.63;;;-3.68;82.85
25420;BME280;13354;48.174;11.566;2022-12-18T10:48:39;96954.19;;;-3.92;82.65
25420;BME280;13354;48.174;11.566;2022-12-18T10:51:06;96956.56;;;-3.87;83.28
25420;BME280;13354;48.174;11.566;2022-12-18T10:53:34;96953.09;;;-3.69;83.67
25420;BME280;13354;48.174;11.566;2022-12-18T10:56:02;96954.84;;;-3.69;83.14
25420;BME280;13354;48.174;11.566;2022-12-18T10:58:31;96945.97;;;-3.63;83.64
25420;BME280;13354;48.174;11.566;2022-12-18T11:01:05;96957.84;;;-3.59;82.14
25420;BME280;13354;48.174;11.566;2022-12-18T11:06:22;96968.81;;;-3.54;82.45
25420;BME280;13354;48.174;11.566;2022-12-18T11:11:32;96968.06;;;-3.56;82.03
25420;BME280;13354;48.174;11.566;2022-12-18T11:14:16;96966.69;;;-3.46;81.74
25420;BME280;13354;48.174;11.566;2022-12-18T11:16:47;96976.72;;;-3.57;81.63
25420;BME280;13354;48.174;11.566;2022-12-18T11:19:37;96975.59;;;-3.52;81.54
25420;BME280;13354;48.174;11.566;2022-12-18T11:22:25;96974.28;;;-3.60;82.13
25420;BME280;13354;48.174;11.566;2022-12-18T11:25:04;96972.53;;;-3.60;82.19
25420;BME280;13354;48.174;11.566;2022-12-18T11:27:31;96970.78;;;-3.59;82.15
25420;BME280;13354;48.174;11.566;2022-12-18T11:32:54;96966.91;;;-3.51;81.12
25420;BME280;13354;48.174;11.566;2022-12-18T11:37:55;96962.31;;;-3.63;81.85
25420;BME280;13354;48.174;11.566;2022-12-18T11:40:30;96963.63;;;-3.54;81.96
25420;BME280;13354;48.174;11.566;2022-12-18T11:43:04;96958.13;;;-3.66;82.34
25420;BME280;13354;48.174;11.566;2022-12-18T11:45:36;96946.44;;;-3.55;82.82
25420;BME280;13354;48.174;11.566;2022-12-18T11:48:27;96947.28;;;-3.37;82.77
25420;BME280;13354;48.174;11.566;2022-12-18T11:50:55;96948.13;;;-3.37;82.53
25420;BME280;13354;48.174;11.566;2022-12-18T11:53:21;96938.34;;;-3.32;81.62
25420;BME280;13354;48.174;11.566;2022-12-18T11:55:53;96949.09;;;-3.40;81.54
25420;BME280;13354;48.174;11.566;2022-12-18T12:23:54;96929.00;;;-3.52;81.52
25420;BME280;13354;48.174;11.566;2022-12-18T12:26:34;96932.19;;;-3.47;81.36
25420;BME280;13354;48.174;11.566;2022-12-18T12:39:40;96919.56;;;-3.53;80.78
25420;BME280;13354;48.174;11.566;2022-12-18T12:42:13;96920.94;;;-3.46;80.64
25420;BME280;13354;48.174;11.566;2022-12-18T12:45:00;96927.06;;;-3.66;81.31
25420;BME280;13354;48.174;11.566;2022-12-18T12:47:32;96922.84;;;-3.49;80.94
25420;BME280;13354;48.174;11.566;2022-12-18T12:50:03;96920.44;;;-3.71;81.13
25420;BME280;13354;48.174;11.566;2022-12-18T12:52:35;96921.06;;;-3.66;81.84
25420;BME280;13354;48.174;11.566;2022-12-18T12:55:04;96921.44;;;-3.74;81.09
25420;BME280;13354;48.174;11.566;2022-12-18T12:57:34;96922.44;;;-3.59;80.69
25420;BME280;13354;48.174;11.566;2022-12-18T13:00:08;96923.19;;;-3.74;81.29
25420;BME280;13354;48.174;11.566;2022-12-18T13:02:39;96932.28;;;-3.84;81.46
25420;BME280;13354;48.174;11.566;2022-12-18T13:05:26;96937.69;;;-3.89;81.97
25420;BME280;13354;48.174;11.566;2022-12-18T13:08:31;96935.59;;;-3.63;81.40
25420;BME280;13354;48.174;11.566;2022-12-18T13:10:58;96930.72;;;-3.70;81.79
25420;BME280;13354;48.174;11.566;2022-12-18T13:13:52;96930.13;;;-3.57;81.98
25420;BME280;13354;48.174;11.566;2022-12-18T13:16:20;96932.50;;;-3.53;82.34
25420;BME280;13354;48.174;11.566;2022-12-18T13:18:56;96940.72;;;-3.45;82.33
25420;BME280;13354;48.174;11.566;2022-12-18T13:21:32;96942.84;;;-3.53;82.24
25420;BME280;13354;48.174;11.566;2022-12-18T13:24:15;96947.28;;;-3.37;81.77
25420;BME280;13354;48.174;11.566;2022-12-18T13:26:47;96940.88;;;-3.48;81.72
25420;BME280;13354;48.174;11.566;2022-12-18T13:29:40;96944.22;;;-3.46;81.54
25420;BME280;13354;48.174;11.566;2022-12-18T13:32:23;96938.56;;;-3.71;81.45
25420;BME280;13354;48.174;11.566;2022-12-18T13:37:53;96940.78;;;-3.63;82.14
25420;BME280;13354;48.174;11.566;2022-12-18T13:43:24;96941.56;;;-3.80;82.56
25420;BME280;13354;48.174;11.566;2022-12-18T13:48:50;96930.28;;;-3.60;83.16
25420;BME280;13354;48.174;11.566;2022-12-18T13:51:17;96936.63;;;-3.49;83.03
25420;BME280;13354;48.174;11.566;2022-12-18T13:53:49;96930.44;;;-3.46;82.42
25420;BME280;13354;48.174;11.566;2022-12-18T13:56:22;96925.13;;;-3.79;82.75
25420;BME280;13354;48.174;11.566;2022-12-18T13:59:12;96914.78;;;-3.97;83.23
25420;BME280;13354;48.174;11.566;2022-12-18T14:01:42;96916.16;;;-3.90;83.78
25420;BME280;13354;48.174;11.566;2022-12-18T14:04:18;96919.34;;;-3.84;83.58
25420;BME280;13354;48.174;11.566;2022-12-18T14:06:43;96919.72;;;-3.92;83.96
25420;BME280;13354;48.174;11.566;2022-12-18T14:09:14;96918.59;;;-3.69;83.66
25420;BME280;13354;48.174;11.566;2022-12-18T14:11:39;96927.13;;;-3.84;82.96
25420;BME280;13354;48.174;11.566;2022-12-18T14:14:05;96930.66;;;-3.68;83.18
25420;BME280;13354;48.174;11.566;2022-12-18T14:16:33;96928.63;;;-3.80;82.97
25420;BME280;13354;48.174;11.566;2022-12-18T14:18:59;96921.50;;;-3.75;83.91
25420;BME280;13354;48.174;11.566;2022-12-18T14:21:30;96915.28;;;-3.71;83.93
25420;BME280;13354;48.174;11.566;2022-12-18T14:26:38;96938.56;;;-3.71;84.39
25420;BME280;13354;48.174;11.566;2022-12-18T14:32:21;96943.25;;;-3.79;84.55